Time;durP1;ratioP1;P1;durP2;ratioP2;P2;SDS_P1;SDS_P2;PMS_P1;PMS_P2;Temp;Humidity;BMP_temperature;BMP_pressure;BME280_temperature;BME280_humidity;BME280_pressure;Samples;Min_cycle;Max_cycle;Signal;HPM_P1;HPM_P2
2022/01/22 00:02:24;;;;;;;14.17;6.73;;;5.70;99.90;;;;;;4971065;28;20210;-79
2022/01/22 00:04:50;;;;;;;13.30;6.47;;;5.70;99.90;;;;;;4975925;28;20184;-80
2022/01/22 00:07:16;;;;;;;15.23;5.87;;;5.70;99.90;;;;;;5003024;28;20876;-80
2022/01/22 00:09:50;;;;;;;13.30;6.50;;;5.70;99.90;;;;;;5001913;28;20245;-79
2022/01/22 00:12:28;;;;;;;14.57;6.60;;;5.70;99.90;;;;;;4982903;28;20312;-79
2022/01/22 00:14:54;;;;;;;13.00;7.03;;;5.70;99.90;;;;;;4977603;28;20203;-78
2022/01/22 00:17:19;;;;;;;13.90;7.23;;;5.80;99.90;;;;;;4976414;28;20181;-79
2022/01/22 00:19:45;;;;;;;14.23;8.40;;;5.70;99.90;;;;;;4971907;28;20305;-80
2022/01/22 00:22:11;;;;;;;16.77;7.13;;;5.80;99.90;;;;;;4981033;28;20204;-78
2022/01/22 00:24:40;;;;;;;15.10;6.50;;;5.80;99.90;;;;;;4975885;28;20215;-78
2022/01/22 00:27:06;;;;;;;14.63;6.23;;;5.80;99.90;;;;;;4976198;28;20175;-79
2022/01/22 00:29:32;;;;;;;14.27;6.47;;;5.80;99.90;;;;;;4966095;28;20582;-79
2022/01/22 00:31:58;;;;;;;11.30;5.57;;;5.80;99.90;;;;;;4980441;28;20657;-79
2022/01/22 00:34:23;;;;;;;10.93;6.37;;;5.80;99.90;;;;;;4965867;28;20228;-79
2022/01/22 00:36:49;;;;;;;14.60;6.00;;;5.90;99.90;;;;;;4981330;28;20236;-79
2022/01/22 00:39:15;;;;;;;11.30;5.77;;;5.80;99.90;;;;;;4971591;28;20548;-78
2022/01/22 00:41:41;;;;;;;11.67;5.43;;;5.80;99.90;;;;;;4962489;28;20694;-79
2022/01/22 00:44:07;;;;;;;16.57;6.17;;;5.80;99.90;;;;;;4974382;28;20181;-79
2022/01/22 00:46:36;;;;;;;10.57;5.10;;;5.70;99.90;;;;;;4977272;28;20191;-79
2022/01/22 00:49:02;;;;;;;9.40;4.90;;;5.80;99.90;;;;;;4969225;28;20203;-80
2022/01/22 00:51:28;;;;;;;11.30;5.33;;;5.80;99.90;;;;;;4986273;28;20207;-80
2022/01/22 00:53:54;;;;;;;9.23;5.23;;;5.80;99.90;;;;;;5003823;28;20221;-80
2022/01/22 00:56:20;;;;;;;13.03;5.30;;;5.80;99.90;;;;;;5004530;28;20212;-81
2022/01/22 00:58:45;;;;;;;9.87;5.07;;;5.80;99.90;;;;;;5004149;28;20177;-80
2022/01/22 01:01:11;;;;;;;12.37;5.67;;;5.90;99.90;;;;;;5002767;28;20327;-79
2022/01/22 01:03:37;;;;;;;10.40;5.57;;;5.90;99.90;;;;;;5003473;28;20182;-81
2022/01/22 01:06:05;;;;;;;13.33;5.03;;;5.90;99.90;;;;;;5003955;28;20648;-79
2022/01/22 01:08:33;;;;;;;8.63;4.90;;;5.80;99.90;;;;;;5002839;28;20180;-79
2022/01/22 01:11:00;;;;;;;11.27;4.97;;;5.80;99.90;;;;;;5018843;28;20180;-79
2022/01/22 01:13:30;;;;;;;9.30;4.73;;;5.80;99.90;;;;;;4994019;28;20216;-79
2022/01/22 01:16:44;;;;;;;10.53;5.07;;;5.80;99.90;;;;;;4996208;28;20180;-79
2022/01/22 01:32:52;;;;;;;10.83;5.00;;;5.70;99.90;;;;;;4981545;28;20212;-81
2022/01/22 01:35:17;;;;;;;10.80;4.90;;;5.70;99.90;;;;;;4973763;28;20286;-79
2022/01/22 01:37:43;;;;;;;13.10;4.97;;;5.60;99.90;;;;;;4995654;28;20666;-79
2022/01/22 01:40:11;;;;;;;12.27;4.97;;;5.60;99.90;;;;;;4980373;28;20172;-80
2022/01/22 01:42:50;;;;;;;11.03;5.17;;;5.60;99.90;;;;;;4956188;28;20195;-79
2022/01/22 01:45:16;;;;;;;13.00;5.40;;;5.60;99.90;;;;;;4966660;28;20195;-79
2022/01/22 01:47:47;;;;;;;13.70;5.00;;;5.60;99.90;;;;;;4987920;28;20647;-80
2022/01/22 01:50:15;;;;;;;14.10;5.20;;;5.60;99.90;;;;;;4973705;28;20213;-80
2022/01/22 01:52:50;;;;;;;12.90;5.43;;;5.60;99.90;;;;;;4987868;28;20196;-80
2022/01/22 01:55:33;;;;;;;8.93;4.83;;;5.60;99.90;;;;;;4978146;28;20524;-79
2022/01/22 01:58:00;;;;;;;12.53;5.10;;;5.60;99.90;;;;;;4977962;28;20187;-79
2022/01/22 02:00:26;;;;;;;11.77;5.10;;;5.60;99.90;;;;;;4984380;28;20174;-79
2022/01/22 02:03:00;;;;;;;14.03;6.23;;;5.60;99.90;;;;;;4988142;28;20260;-79
2022/01/22 02:05:31;;;;;;;16.17;6.27;;;5.60;99.90;;;;;;4975513;28;20266;-79
2022/01/22 02:07:59;;;;;;;11.73;5.70;;;5.60;99.90;;;;;;4979057;28;20183;-79
2022/01/22 02:10:36;;;;;;;15.83;5.60;;;5.60;99.90;;;;;;4973072;28;20633;-80
2022/01/22 02:24:19;;;;;;;15.53;5.77;;;5.50;99.90;;;;;;4983552;28;20182;-79
2022/01/22 02:26:47;;;;;;;15.10;5.77;;;5.50;99.90;;;;;;4987537;28;20168;-79
2022/01/22 02:29:14;;;;;;;11.70;5.07;;;5.50;99.90;;;;;;4989278;28;20188;-79
2022/01/22 02:32:27;;;;;;;16.50;5.30;;;5.50;99.90;;;;;;4988628;28;20206;-79
2022/01/22 02:34:55;;;;;;;13.73;5.70;;;5.50;99.90;;;;;;4968399;28;20219;-80
2022/01/22 02:37:24;;;;;;;15.63;5.97;;;5.50;99.90;;;;;;4983952;28;20634;-79
2022/01/22 02:40:08;;;;;;;16.03;5.87;;;5.50;99.90;;;;;;4990693;28;20167;-79
2022/01/22 02:42:35;;;;;;;15.47;6.47;;;5.50;99.90;;;;;;4979999;28;20207;-79
2022/01/22 02:45:10;;;;;;;13.13;6.87;;;5.50;99.90;;;;;;4978197;28;20619;-79
2022/01/22 02:47:36;;;;;;;15.83;7.67;;;5.50;99.90;;;;;;4977818;28;20182;-78
2022/01/22 02:50:04;;;;;;;17.07;8.40;;;5.50;99.90;;;;;;4976754;28;20272;-78
2022/01/22 02:52:30;;;;;;;17.13;8.23;;;5.50;99.90;;;;;;4981110;28;20273;-78
2022/01/22 02:54:56;;;;;;;14.97;9.17;;;5.50;99.90;;;;;;4981758;28;20674;-79
2022/01/22 02:57:23;;;;;;;20.67;10.00;;;5.60;99.90;;;;;;4982221;28;20669;-79
2022/01/22 02:59:53;;;;;;;20.73;10.47;;;5.60;99.90;;;;;;4982876;28;20174;-79
2022/01/22 03:02:20;;;;;;;17.60;10.73;;;5.60;99.90;;;;;;4980808;28;20223;-79
2022/01/22 03:04:46;;;;;;;22.67;11.57;;;5.60;99.90;;;;;;4982495;28;20201;-80
2022/01/22 03:07:12;;;;;;;21.57;11.27;;;5.60;99.90;;;;;;4996508;28;20199;-79
2022/01/22 03:09:43;;;;;;;31.17;12.50;;;5.60;99.90;;;;;;4971246;28;20248;-79
2022/01/22 03:12:47;;;;;;;26.80;12.97;;;5.60;99.90;;;;;;4987109;28;20217;-78
2022/01/22 03:20:41;;;;;;;26.83;12.07;;;5.60;99.90;;;;;;4994412;28;20173;-78
2022/01/22 03:28:53;;;;;;;29.57;12.70;;;5.60;99.90;;;;;;4999018;28;20233;-78
2022/01/22 03:31:19;;;;;;;26.17;11.73;;;5.70;99.90;;;;;;4985486;28;20210;-77
2022/01/22 03:33:44;;;;;;;29.50;12.27;;;5.70;99.90;;;;;;5012927;28;20221;-78
2022/01/22 03:36:11;;;;;;;28.23;11.53;;;5.70;99.90;;;;;;4974155;28;20181;-78
2022/01/22 03:38:38;;;;;;;25.13;10.83;;;5.70;99.90;;;;;;4977543;28;20176;-78
2022/01/22 03:41:04;;;;;;;20.77;11.10;;;5.70;99.90;;;;;;4980816;28;20171;-78
2022/01/22 03:43:30;;;;;;;22.77;10.70;;;5.70;99.90;;;;;;4977266;28;20192;-77
2022/01/22 03:45:57;;;;;;;28.53;10.77;;;5.60;99.90;;;;;;4979929;28;20527;-79
2022/01/22 03:48:23;;;;;;;21.57;10.60;;;5.60;99.90;;;;;;4980293;28;20183;-79
2022/01/22 03:50:49;;;;;;;22.03;11.47;;;5.70;99.90;;;;;;4980753;28;20189;-79
2022/01/22 03:53:16;;;;;;;23.70;11.00;;;5.70;99.90;;;;;;4979519;28;20179;-78
2022/01/22 03:56:16;;;;;;;24.97;10.63;;;5.70;99.90;;;;;;5016482;28;20199;-78
2022/01/22 03:59:07;;;;;;;22.70;10.43;;;5.60;99.90;;;;;;5004701;28;20185;-77
2022/01/22 04:05:03;;;;;;;25.93;10.30;;;5.60;99.90;;;;;;4981307;28;20202;-76
2022/01/22 04:10:01;;;;;;;21.13;10.07;;;5.60;99.90;;;;;;4997816;28;20191;-76
2022/01/22 04:12:51;;;;;;;25.20;9.93;;;5.60;99.90;;;;;;4997736;28;20551;-77
2022/01/22 04:15:21;;;;;;;22.53;9.20;;;5.60;99.90;;;;;;4996678;28;20576;-77
2022/01/22 04:28:36;;;;;;;20.93;9.20;;;5.60;99.90;;;;;;4991347;28;20183;-76
2022/01/22 04:31:04;;;;;;;18.77;8.33;;;5.60;99.90;;;;;;4997533;28;20554;-79
2022/01/22 04:33:30;;;;;;;17.50;8.53;;;5.60;99.90;;;;;;4999284;28;20668;-78
2022/01/22 04:35:56;;;;;;;17.60;8.07;;;5.60;99.90;;;;;;4998167;28;20216;-78
2022/01/22 04:38:22;;;;;;;20.23;8.57;;;5.60;99.90;;;;;;4998280;28;20246;-78
2022/01/22 04:40:50;;;;;;;19.43;8.80;;;5.70;99.90;;;;;;4997473;28;20203;-78
2022/01/22 04:43:22;;;;;;;20.47;7.97;;;5.60;99.90;;;;;;4998707;28;20178;-78
2022/01/22 04:46:14;;;;;;;17.73;8.77;;;5.60;99.90;;;;;;4998723;28;20225;-78
2022/01/22 04:48:52;;;;;;;18.60;8.80;;;5.70;99.90;;;;;;4996046;28;20585;-78
2022/01/22 04:56:53;;;;;;;20.17;9.27;;;5.70;99.90;;;;;;4994640;28;20181;-78
2022/01/22 04:59:19;;;;;;;18.83;8.73;;;5.80;99.90;;;;;;4997828;28;20184;-78
2022/01/22 05:01:45;;;;;;;22.20;9.30;;;5.80;99.90;;;;;;4990157;28;20221;-78
2022/01/22 05:04:19;;;;;;;20.33;8.93;;;5.70;99.90;;;;;;4981841;28;20194;-78
2022/01/22 05:06:52;;;;;;;19.43;8.87;;;5.80;99.90;;;;;;4976787;28;20259;-79
2022/01/22 05:09:28;;;;;;;27.47;9.00;;;5.70;99.90;;;;;;4959463;28;20180;-78
2022/01/22 05:11:58;;;;;;;21.87;9.30;;;5.70;99.90;;;;;;4969127;28;20215;-79
2022/01/22 05:14:24;;;;;;;24.27;10.13;;;5.70;99.90;;;;;;5006539;28;20216;-78
2022/01/22 05:16:50;;;;;;;26.53;10.87;;;5.60;99.90;;;;;;4986022;28;20184;-79
2022/01/22 05:19:33;;;;;;;25.10;10.67;;;5.60;99.90;;;;;;4990242;28;20178;-79
2022/01/22 05:22:12;;;;;;;26.07;11.60;;;5.60;99.90;;;;;;5000421;28;20220;-78
2022/01/22 05:24:42;;;;;;;30.50;12.20;;;5.60;99.90;;;;;;4990028;28;20264;-78
2022/01/22 05:38:17;;;;;;;25.87;11.33;;;5.50;99.90;;;;;;4948688;29;20250;-79
2022/01/22 05:40:44;;;;;;;25.93;10.37;;;5.50;99.90;;;;;;4948591;28;20185;-78
2022/01/22 05:43:10;;;;;;;27.17;11.60;;;5.50;99.90;;;;;;4966297;28;20200;-78
2022/01/22 05:45:36;;;;;;;26.17;11.63;;;5.50;99.90;;;;;;4974771;28;20223;-79
2022/01/22 05:48:02;;;;;;;26.60;11.47;;;5.50;99.90;;;;;;4968337;28;20193;-79
2022/01/22 05:50:32;;;;;;;27.27;12.37;;;5.50;99.90;;;;;;4953058;28;20186;-79
2022/01/22 05:53:04;;;;;;;23.80;10.40;;;5.50;99.90;;;;;;4967990;28;20213;-80
2022/01/22 06:00:55;;;;;;;23.03;11.43;;;5.50;99.90;;;;;;4973805;28;20199;-78
2022/01/22 06:03:35;;;;;;;26.63;12.33;;;5.50;99.90;;;;;;4977538;28;20170;-78
2022/01/22 06:06:03;;;;;;;32.27;12.40;;;5.50;99.90;;;;;;4979350;28;20180;-78
2022/01/22 06:08:31;;;;;;;34.33;13.40;;;5.40;99.90;;;;;;4974779;28;20169;-77
2022/01/22 06:11:00;;;;;;;30.87;13.03;;;5.40;99.90;;;;;;4960713;28;20179;-78
2022/01/22 06:13:46;;;;;;;36.03;14.33;;;5.40;99.90;;;;;;4960521;28;20181;-77
2022/01/22 06:16:22;;;;;;;39.23;16.40;;;5.40;99.90;;;;;;4973299;28;20271;-78
2022/01/22 06:19:14;;;;;;;40.80;14.37;;;5.40;99.90;;;;;;4964166;28;20185;-78
2022/01/22 06:21:40;;;;;;;36.73;14.17;;;5.40;99.90;;;;;;4964596;28;20195;-78
2022/01/22 06:24:07;;;;;;;40.83;15.30;;;5.50;99.90;;;;;;4965110;28;20189;-78
2022/01/22 06:26:35;;;;;;;43.40;15.30;;;5.50;99.90;;;;;;4987665;28;20186;-78
2022/01/22 06:29:02;;;;;;;37.60;14.90;;;5.50;99.90;;;;;;4968619;28;20196;-77
2022/01/22 06:31:28;;;;;;;35.87;13.87;;;5.50;99.90;;;;;;4979677;28;20203;-78
2022/01/22 06:33:57;;;;;;;41.37;15.33;;;5.50;99.90;;;;;;4979340;28;20658;-77
2022/01/22 06:36:26;;;;;;;34.63;13.60;;;5.50;99.90;;;;;;4974709;28;20177;-77
2022/01/22 06:38:58;;;;;;;40.07;14.00;;;5.50;99.90;;;;;;4959633;28;20207;-78
2022/01/22 06:41:50;;;;;;;36.27;14.53;;;5.50;99.90;;;;;;4984231;28;20255;-78
2022/01/22 06:44:37;;;;;;;36.40;14.57;;;5.50;99.90;;;;;;4978035;28;20191;-78
2022/01/22 06:47:21;;;;;;;29.07;13.93;;;5.50;99.90;;;;;;5001716;28;20187;-79
2022/01/22 06:49:54;;;;;;;34.33;14.50;;;5.50;99.90;;;;;;4996716;28;20284;-78
2022/01/22 06:52:43;;;;;;;32.57;14.80;;;5.50;99.90;;;;;;5002759;28;20217;-78
2022/01/22 06:55:22;;;;;;;33.93;15.10;;;5.50;99.90;;;;;;4965265;28;20204;-78
2022/01/22 06:57:47;;;;;;;32.43;14.77;;;5.50;99.90;;;;;;4961467;28;20217;-78
2022/01/22 07:00:24;;;;;;;29.63;13.93;;;5.50;99.90;;;;;;4960314;28;20631;-78
2022/01/22 07:03:00;;;;;;;27.73;12.97;;;5.50;99.90;;;;;;4960656;28;20201;-78
2022/01/22 07:05:55;;;;;;;31.03;14.00;;;5.50;99.90;;;;;;4981752;28;20187;-78
2022/01/22 07:08:23;;;;;;;32.10;12.57;;;5.50;99.90;;;;;;4977097;28;20186;-78
2022/01/22 07:10:54;;;;;;;26.93;12.67;;;5.40;99.90;;;;;;4960392;28;20192;-79
2022/01/22 07:13:20;;;;;;;29.50;12.33;;;5.40;99.90;;;;;;4969958;28;20188;-78
2022/01/22 07:15:47;;;;;;;23.17;11.20;;;5.40;99.90;;;;;;4965696;28;20321;-78
2022/01/22 07:18:18;;;;;;;28.30;11.57;;;5.40;99.90;;;;;;4972937;28;20183;-78
2022/01/22 07:20:45;;;;;;;25.73;11.23;;;5.40;99.90;;;;;;4970572;28;20170;-78
2022/01/22 07:23:53;;;;;;;28.87;12.17;;;5.40;99.90;;;;;;4987080;28;20275;-78
2022/01/22 07:26:15;;;;;;;31.63;11.83;;;5.40;99.90;;;;;;4970629;28;20236;-79
2022/01/22 07:28:54;;;;;;;36.80;13.03;;;5.40;99.90;;;;;;4965724;28;20198;-79
2022/01/22 07:31:20;;;;;;;32.63;12.43;;;5.40;99.90;;;;;;4980828;28;20247;-79
2022/01/22 07:33:47;;;;;;;34.07;12.23;;;5.40;99.90;;;;;;4964125;28;20184;-79
2022/01/22 07:36:13;;;;;;;36.67;12.60;;;5.40;99.90;;;;;;4973296;28;20270;-79
2022/01/22 07:38:40;;;;;;;34.40;12.20;;;5.40;99.90;;;;;;4954601;28;20173;-79
2022/01/22 07:41:09;;;;;;;33.93;12.20;;;5.40;99.90;;;;;;4975587;28;20178;-78
2022/01/22 07:43:42;;;;;;;36.10;12.07;;;5.30;99.90;;;;;;4956423;28;20181;-78
2022/01/22 07:46:27;;;;;;;32.13;11.83;;;5.30;99.90;;;;;;4946487;28;20592;-78
2022/01/22 07:49:02;;;;;;;31.97;12.40;;;5.30;99.90;;;;;;4966193;28;20171;-77
2022/01/22 07:51:43;;;;;;;35.27;12.07;;;5.30;99.90;;;;;;4982828;28;20207;-79
2022/01/22 07:54:08;;;;;;;31.47;11.03;;;5.30;99.90;;;;;;4993469;28;20205;-79
2022/01/22 07:56:35;;;;;;;29.23;10.47;;;5.40;99.90;;;;;;4979216;28;20178;-79
2022/01/22 07:59:02;;;;;;;28.20;9.63;;;5.40;99.90;;;;;;4984607;28;20179;-79
2022/01/22 08:01:32;;;;;;;29.77;9.23;;;5.40;99.90;;;;;;5000467;28;20694;-80
2022/01/22 08:04:23;;;;;;;24.37;8.53;;;5.40;99.90;;;;;;4992310;28;20183;-79
2022/01/22 08:06:57;;;;;;;22.83;7.73;;;5.40;99.90;;;;;;4990354;28;20180;-79
2022/01/22 08:09:29;;;;;;;22.60;8.40;;;5.40;99.90;;;;;;5014298;28;20183;-79
2022/01/22 08:12:08;;;;;;;22.77;8.63;;;5.40;99.90;;;;;;5019116;28;20261;-80
2022/01/22 08:14:34;;;;;;;20.43;7.67;;;5.40;99.90;;;;;;5014528;28;20224;-79
2022/01/22 08:17:00;;;;;;;17.97;7.47;;;5.40;99.90;;;;;;4976105;28;20174;-80
2022/01/22 08:19:32;;;;;;;17.87;7.37;;;5.40;99.90;;;;;;4963060;28;20264;-80
2022/01/22 08:21:59;;;;;;;16.17;7.63;;;5.40;99.90;;;;;;4997796;28;20198;-80
2022/01/22 08:24:43;;;;;;;14.47;7.03;;;5.40;99.90;;;;;;4980027;28;20191;-80
2022/01/22 08:29:38;;;;;;;15.23;6.73;;;5.50;99.90;;;;;;4999088;28;20176;-79
2022/01/22 08:32:32;;;;;;;16.40;7.43;;;5.50;99.90;;;;;;4999334;28;20261;-79
2022/01/22 08:37:42;;;;;;;17.53;7.17;;;5.50;99.90;;;;;;4991518;28;20219;-75
2022/01/22 08:40:23;;;;;;;12.80;7.03;;;5.50;99.90;;;;;;4974363;28;20256;-75
2022/01/22 08:42:54;;;;;;;16.23;7.00;;;5.60;99.90;;;;;;4981180;28;20288;-81
2022/01/22 08:45:20;;;;;;;20.30;7.10;;;5.60;99.90;;;;;;4964360;28;20213;-80
2022/01/22 08:47:56;;;;;;;14.33;6.80;;;5.50;99.90;;;;;;4991093;28;20183;-77
2022/01/22 08:50:23;;;;;;;19.23;8.33;;;5.50;99.90;;;;;;4980354;28;20222;-77
2022/01/22 08:52:49;;;;;;;21.23;7.70;;;5.60;99.90;;;;;;4970540;28;20279;-77
2022/01/22 08:55:15;;;;;;;18.63;7.50;;;5.60;99.90;;;;;;4975619;28;20350;-77
2022/01/22 08:57:41;;;;;;;18.07;7.70;;;5.50;99.90;;;;;;4996259;28;20217;-77
2022/01/22 09:00:18;;;;;;;18.27;8.03;;;5.50;99.90;;;;;;4976183;28;20206;-78
2022/01/22 09:03:20;;;;;;;16.80;6.83;;;5.60;99.90;;;;;;4978879;28;20190;-79
2022/01/22 09:06:06;;;;;;;17.10;6.97;;;5.60;99.90;;;;;;4989670;28;20193;-78
2022/01/22 09:09:09;;;;;;;18.73;8.10;;;5.60;99.90;;;;;;4973946;28;20249;-77
2022/01/22 09:11:56;;;;;;;20.03;8.47;;;5.70;99.90;;;;;;4944609;28;20216;-77
2022/01/22 09:14:37;;;;;;;18.67;8.47;;;5.70;99.90;;;;;;4951574;28;20290;-79
2022/01/22 09:17:04;;;;;;;20.27;8.53;;;5.70;99.90;;;;;;4980388;28;20208;-79
2022/01/22 09:19:35;;;;;;;18.67;8.53;;;5.70;99.90;;;;;;4984004;28;20211;-78
2022/01/22 09:22:07;;;;;;;20.60;9.13;;;5.60;99.90;;;;;;4989639;28;20742;-79
2022/01/22 09:24:34;;;;;;;20.53;8.57;;;5.70;99.90;;;;;;4986391;28;20184;-79
2022/01/22 09:27:04;;;;;;;22.67;9.50;;;5.70;99.90;;;;;;4998756;28;20195;-78
2022/01/22 09:29:29;;;;;;;20.30;9.50;;;5.70;99.90;;;;;;4982938;28;20160;-78
2022/01/22 09:32:02;;;;;;;14.47;8.37;;;5.70;99.90;;;;;;4966505;28;20271;-79
2022/01/22 09:34:48;;;;;;;14.47;7.53;;;5.70;99.90;;;;;;4980102;28;20204;-79
2022/01/22 09:37:46;;;;;;;15.43;7.47;;;5.70;99.90;;;;;;4995466;28;20177;-80
2022/01/22 09:40:35;;;;;;;17.63;7.87;;;5.70;99.90;;;;;;5019904;28;20210;-79
2022/01/22 09:43:19;;;;;;;13.37;7.97;;;5.80;99.90;;;;;;5018973;28;20202;-79
2022/01/22 09:45:57;;;;;;;15.70;8.00;;;5.80;99.90;;;;;;5001486;28;20545;-78
2022/01/22 09:48:44;;;;;;;18.43;7.90;;;5.80;99.90;;;;;;4980707;28;20275;-79
2022/01/22 09:51:18;;;;;;;13.90;7.83;;;5.80;99.90;;;;;;4977956;28;20224;-79
2022/01/22 09:54:10;;;;;;;17.33;8.60;;;5.90;99.90;;;;;;5004507;28;20203;-79
2022/01/22 09:57:02;;;;;;;12.47;6.83;;;5.90;99.90;;;;;;4962045;28;20169;-79
2022/01/22 09:59:42;;;;;;;16.13;7.10;;;5.90;99.90;;;;;;4989363;28;20168;-79
2022/01/22 10:02:19;;;;;;;15.20;7.83;;;5.90;99.90;;;;;;5020235;28;20204;-79
2022/01/22 10:04:52;;;;;;;14.50;8.27;;;6.00;99.90;;;;;;4982678;28;20192;-78
2022/01/22 10:07:38;;;;;;;12.37;7.13;;;6.00;99.90;;;;;;4985097;28;20195;-81
2022/01/22 10:10:17;;;;;;;13.10;7.27;;;6.00;99.90;;;;;;5000916;28;20179;-79
2022/01/22 10:13:02;;;;;;;13.87;6.37;;;6.00;99.90;;;;;;4976712;28;20225;-79
2022/01/22 10:15:48;;;;;;;9.77;6.07;;;6.10;99.90;;;;;;4963968;28;20288;-80
2022/01/22 10:18:21;;;;;;;13.83;6.70;;;6.10;99.90;;;;;;4965859;28;20202;-80
2022/01/22 10:20:47;;;;;;;10.67;6.20;;;6.20;99.90;;;;;;4963888;28;20177;-79
2022/01/22 10:23:23;;;;;;;12.50;6.30;;;6.10;99.90;;;;;;4961947;28;20350;-79
2022/01/22 10:25:55;;;;;;;11.80;6.50;;;6.20;99.90;;;;;;4961181;28;20181;-79
2022/01/22 10:28:23;;;;;;;10.47;6.53;;;6.20;99.90;;;;;;4996770;28;20173;-78
2022/01/22 10:30:55;;;;;;;10.03;6.67;;;6.20;99.90;;;;;;4999991;28;20181;-78
2022/01/22 10:33:30;;;;;;;11.67;7.00;;;6.20;99.90;;;;;;4991006;28;20252;-78
2022/01/22 10:36:22;;;;;;;10.57;7.20;;;6.10;99.90;;;;;;5015972;28;20276;-79
2022/01/22 10:39:25;;;;;;;13.83;7.73;;;6.20;99.90;;;;;;4964511;28;20649;-79
2022/01/22 10:41:52;;;;;;;12.23;7.97;;;6.20;99.90;;;;;;4961314;28;20202;-80
2022/01/22 10:44:35;;;;;;;18.77;8.90;;;6.10;99.90;;;;;;4961977;28;20233;-79
2022/01/22 10:47:04;;;;;;;16.57;8.87;;;6.20;99.90;;;;;;4961247;28;20558;-79
2022/01/22 10:49:30;;;;;;;14.57;8.47;;;6.20;99.90;;;;;;4964118;28;20204;-79
2022/01/22 10:51:59;;;;;;;14.10;7.47;;;6.20;99.90;;;;;;5000930;28;20205;-79
2022/01/22 10:54:31;;;;;;;16.10;7.33;;;6.30;99.90;;;;;;5007252;28;20205;-79
2022/01/22 10:57:18;;;;;;;15.27;7.53;;;6.20;99.90;;;;;;5012440;28;20206;-79
2022/01/22 10:59:45;;;;;;;12.53;7.27;;;6.20;99.90;;;;;;5000750;28;20192;-79
2022/01/22 11:02:12;;;;;;;13.63;7.90;;;6.30;99.90;;;;;;4970740;28;20209;-79
2022/01/22 11:04:37;;;;;;;15.13;7.13;;;6.20;99.90;;;;;;4997967;28;20659;-79
2022/01/22 11:07:05;;;;;;;15.10;6.20;;;6.20;99.90;;;;;;4982977;28;20185;-80
2022/01/22 11:09:32;;;;;;;9.87;6.30;;;6.30;99.90;;;;;;4998796;28;20189;-79
2022/01/22 11:11:59;;;;;;;12.40;6.23;;;6.30;99.90;;;;;;4995949;28;20213;-80
2022/01/22 11:14:27;;;;;;;9.50;5.63;;;6.30;99.90;;;;;;4999200;28;20205;-80
2022/01/22 11:16:54;;;;;;;9.40;6.10;;;6.30;99.90;;;;;;4996006;28;20177;-80
2022/01/22 11:19:22;;;;;;;10.00;5.37;;;6.30;99.90;;;;;;4983260;28;20254;-80
2022/01/22 11:21:52;;;;;;;6.93;4.03;;;6.20;99.90;;;;;;4998944;28;20199;-80
2022/01/22 11:24:22;;;;;;;7.07;3.80;;;6.20;99.90;;;;;;4998868;28;20588;-79
2022/01/22 11:26:55;;;;;;;5.73;3.30;;;6.20;99.90;;;;;;5005435;28;20201;-79
2022/01/22 11:29:24;;;;;;;4.47;2.83;;;6.20;99.90;;;;;;5003684;28;20181;-80
2022/01/22 11:31:52;;;;;;;5.10;3.17;;;6.30;99.90;;;;;;5000601;28;20677;-80
2022/01/22 11:34:23;;;;;;;3.30;2.70;;;6.30;99.90;;;;;;5002413;28;20235;-79
2022/01/22 11:37:17;;;;;;;3.33;2.43;;;6.30;99.90;;;;;;4988269;28;20191;-79
2022/01/22 11:39:43;;;;;;;5.10;2.37;;;6.30;99.90;;;;;;4996202;28;20206;-79
2022/01/22 11:42:09;;;;;;;3.83;2.17;;;6.20;99.90;;;;;;4999604;28;20206;-79
2022/01/22 11:44:51;;;;;;;3.37;2.33;;;6.30;99.90;;;;;;5002443;28;20244;-79
2022/01/22 11:47:24;;;;;;;3.50;2.60;;;6.20;99.90;;;;;;4992175;28;20198;-79
2022/01/22 11:50:07;;;;;;;5.07;3.30;;;6.20;99.90;;;;;;4975032;28;20189;-79
2022/01/22 11:52:44;;;;;;;6.43;3.67;;;6.20;99.90;;;;;;5002162;28;20197;-79
2022/01/22 11:55:13;;;;;;;6.40;4.03;;;6.20;99.90;;;;;;5002954;28;20290;-80
2022/01/22 11:57:40;;;;;;;7.87;4.57;;;6.10;99.90;;;;;;5002005;28;20200;-78
2022/01/22 12:00:18;;;;;;;8.87;5.40;;;6.10;99.90;;;;;;5002505;28;20178;-80
2022/01/22 12:02:45;;;;;;;7.83;5.40;;;6.10;99.90;;;;;;5002563;28;20197;-78
2022/01/22 12:05:11;;;;;;;11.03;5.60;;;6.20;99.90;;;;;;4985846;28;20178;-79
2022/01/22 12:07:37;;;;;;;6.10;5.03;;;6.20;99.90;;;;;;4979305;28;20182;-80
2022/01/22 12:10:38;;;;;;;7.73;4.80;;;6.20;99.90;;;;;;4979329;28;20190;-79
2022/01/22 12:16:34;;;;;;;4.53;3.40;;;6.20;99.90;;;;;;5002724;28;20187;-79
2022/01/22 12:19:01;;;;;;;4.47;3.43;;;6.20;99.90;;;;;;5002653;28;20213;-78
2022/01/22 12:21:34;;;;;;;6.10;3.57;;;6.20;99.90;;;;;;4992599;28;20207;-78
2022/01/22 12:24:02;;;;;;;7.20;3.53;;;6.20;99.90;;;;;;5002077;28;20250;-80
2022/01/22 12:26:38;;;;;;;11.07;4.60;;;6.20;99.90;;;;;;4993311;28;20214;-79
2022/01/22 12:29:32;;;;;;;5.87;4.00;;;6.20;99.90;;;;;;5003088;28;20189;-80
2022/01/22 12:32:20;;;;;;;5.47;4.13;;;6.30;99.90;;;;;;5002224;28;20216;-80
2022/01/22 12:35:05;;;;;;;7.00;4.50;;;6.30;99.90;;;;;;5001813;28;20197;-80
2022/01/22 12:37:31;;;;;;;7.27;4.30;;;6.30;99.90;;;;;;5002116;28;20297;-81
2022/01/22 12:39:58;;;;;;;6.93;4.30;;;6.40;99.90;;;;;;5000966;28;20180;-80
2022/01/22 12:42:53;;;;;;;4.90;4.00;;;6.30;99.90;;;;;;5020262;28;20228;-79
2022/01/22 12:45:31;;;;;;;6.93;4.47;;;6.30;99.90;;;;;;5005261;28;20180;-80
2022/01/22 12:47:57;;;;;;;6.40;4.07;;;6.30;99.90;;;;;;5001728;28;20197;-78
2022/01/22 12:50:25;;;;;;;7.53;4.20;;;6.30;99.90;;;;;;5005866;28;20189;-78
2022/01/22 12:52:52;;;;;;;5.73;4.10;;;6.30;99.90;;;;;;5011383;28;20201;-78
2022/01/22 12:55:28;;;;;;;9.13;4.73;;;6.30;99.90;;;;;;4996307;28;20218;-78
2022/01/22 12:57:55;;;;;;;5.93;4.20;;;6.30;99.90;;;;;;5012921;28;20272;-79
2022/01/22 13:00:21;;;;;;;6.57;4.77;;;6.30;99.90;;;;;;5003342;28;20302;-78
2022/01/22 13:02:55;;;;;;;7.00;5.10;;;6.40;99.90;;;;;;5004858;28;20246;-81
2022/01/22 13:05:22;;;;;;;5.13;4.60;;;6.50;99.90;;;;;;5010247;28;20250;-81
2022/01/22 13:08:00;;;;;;;6.93;5.17;;;6.50;99.90;;;;;;5020217;28;20191;-79
2022/01/22 13:10:45;;;;;;;6.97;5.20;;;6.50;99.90;;;;;;5019820;28;20179;-79
2022/01/22 13:13:16;;;;;;;9.27;5.93;;;6.50;99.90;;;;;;5002044;28;20214;-79
2022/01/22 13:15:41;;;;;;;6.50;5.10;;;6.40;99.90;;;;;;4994538;28;20244;-79
2022/01/22 13:18:07;;;;;;;8.17;4.90;;;6.40;99.90;;;;;;5001478;28;20721;-80
2022/01/22 13:20:35;;;;;;;7.10;4.67;;;6.50;99.90;;;;;;4998920;28;20174;-80
2022/01/22 13:23:20;;;;;;;5.83;4.20;;;6.40;99.90;;;;;;4973273;28;20209;-79
2022/01/22 13:25:46;;;;;;;5.97;4.20;;;6.40;99.90;;;;;;5005246;28;20247;-80
2022/01/22 13:28:16;;;;;;;6.17;3.87;;;6.30;99.90;;;;;;4982277;28;20259;-79
2022/01/22 13:30:48;;;;;;;5.50;3.10;;;6.20;99.90;;;;;;4945974;28;20281;-79
2022/01/22 13:33:21;;;;;;;4.33;3.30;;;6.20;99.90;;;;;;4976285;28;20211;-79
2022/01/22 13:49:31;;;;;;;3.27;2.10;;;6.20;99.90;;;;;;5000812;28;20624;-78
2022/01/22 13:52:16;;;;;;;2.90;2.10;;;6.20;99.90;;;;;;5002846;28;20204;-79
2022/01/22 13:54:44;;;;;;;2.70;1.90;;;6.20;99.90;;;;;;5006769;28;20220;-79
2022/01/22 13:57:16;;;;;;;3.73;2.10;;;6.30;99.90;;;;;;5003008;28;20172;-79
2022/01/22 13:59:47;;;;;;;3.37;2.13;;;6.30;99.90;;;;;;5001827;28;20539;-79
2022/01/22 14:04:53;;;;;;;6.20;2.80;;;6.50;99.90;;;;;;5013086;28;20238;-79
2022/01/22 14:07:36;;;;;;;2.93;2.10;;;6.50;99.90;;;;;;5002587;28;20605;-80
2022/01/22 14:10:25;;;;;;;2.10;1.90;;;6.40;99.90;;;;;;5002829;28;20234;-80
2022/01/22 14:12:55;;;;;;;3.03;1.90;;;6.40;99.90;;;;;;4984958;28;20575;-80
2022/01/22 14:15:45;;;;;;;2.90;2.03;;;6.40;99.90;;;;;;5000742;28;20216;-79
2022/01/22 14:18:27;;;;;;;2.37;2.10;;;6.40;99.90;;;;;;4996598;28;20175;-79
2022/01/22 14:21:05;;;;;;;3.90;2.20;;;6.40;99.90;;;;;;4988869;28;20189;-78
2022/01/22 14:23:32;;;;;;;3.90;2.50;;;6.40;99.90;;;;;;4986512;28;20692;-78
2022/01/22 14:26:14;;;;;;;3.93;2.50;;;6.40;99.90;;;;;;5000839;28;20179;-79
2022/01/22 14:29:01;;;;;;;4.10;2.93;;;6.40;99.90;;;;;;4998849;28;20186;-79
2022/01/22 14:31:47;;;;;;;6.90;3.07;;;6.40;99.90;;;;;;5001302;28;20208;-79
2022/01/22 14:34:34;;;;;;;4.73;2.67;;;6.40;99.90;;;;;;5000077;28;20209;-78
2022/01/22 14:37:02;;;;;;;4.70;3.10;;;6.40;99.90;;;;;;4978545;28;20178;-80
2022/01/22 14:45:34;;;;;;;5.07;2.50;;;6.40;99.90;;;;;;5000637;28;20180;-79
2022/01/22 14:48:02;;;;;;;5.03;2.63;;;6.40;99.90;;;;;;5002278;28;20183;-80
2022/01/22 14:50:31;;;;;;;3.83;2.70;;;6.40;99.90;;;;;;5003859;28;20528;-79
2022/01/22 14:52:59;;;;;;;5.97;3.03;;;6.40;99.90;;;;;;5004604;28;20264;-78
2022/01/22 14:55:27;;;;;;;4.27;2.60;;;6.40;99.90;;;;;;5009453;28;20677;-79
2022/01/22 14:57:53;;;;;;;4.33;2.20;;;6.40;99.90;;;;;;5010305;28;20243;-78
2022/01/22 15:00:20;;;;;;;4.87;2.40;;;6.40;99.90;;;;;;5014951;28;20179;-79
2022/01/22 15:02:46;;;;;;;2.87;2.37;;;6.30;99.90;;;;;;5015431;28;20221;-79
2022/01/22 15:05:14;;;;;;;4.83;2.50;;;6.30;99.90;;;;;;4998783;28;20236;-80